createdAt,value
2018-07-13T00:01:43.858Z,97.70
2018-07-13T00:04:12.295Z,97.70
2018-07-13T00:06:40.722Z,97.70
2018-07-13T00:09:10.827Z,97.70
2018-07-13T00:11:39.847Z,97.70
2018-07-13T00:14:14.015Z,97.60
2018-07-13T00:16:43.211Z,97.70
2018-07-13T00:19:12.125Z,97.90
2018-07-13T00:21:40.567Z,97.80
2018-07-13T00:24:09.196Z,97.80
2018-07-13T00:26:38.350Z,97.90
2018-07-13T00:29:07.363Z,97.90
2018-07-13T00:31:36.700Z,98.10
2018-07-13T00:34:05.366Z,98.10
2018-07-13T00:36:33.957Z,98.10
2018-07-13T00:39:02.587Z,98.30
2018-07-13T00:41:31.076Z,98.40
2018-07-13T00:43:59.507Z,98.60
2018-07-13T00:46:27.943Z,98.80
2018-07-13T00:48:56.379Z,98.80
2018-07-13T00:51:24.799Z,99.00
2018-07-13T00:53:53.213Z,99.00
2018-07-13T00:56:21.629Z,99.00
2018-07-13T00:58:50.537Z,99.00
2018-07-13T01:01:18.982Z,99.00
2018-07-13T01:03:47.420Z,99.10
2018-07-13T01:06:15.838Z,99.00
2018-07-13T01:08:44.276Z,99.10
2018-07-13T01:11:12.688Z,99.10
2018-07-13T01:13:41.106Z,99.30
2018-07-13T01:16:09.577Z,99.20
2018-07-13T01:18:38.162Z,99.30
2018-07-13T01:21:06.804Z,99.20
2018-07-13T01:23:35.208Z,99.10
2018-07-13T01:26:03.636Z,99.00
2018-07-13T01:28:32.126Z,99.10
2018-07-13T01:31:00.546Z,99.00
2018-07-13T01:33:29.008Z,99.10
2018-07-13T01:35:57.567Z,99.10
2018-07-13T01:38:26.000Z,99.00
2018-07-13T01:40:54.455Z,99.10
2018-07-13T01:43:22.856Z,99.10
2018-07-13T01:45:51.287Z,99.20
2018-07-13T01:48:19.853Z,99.20
2018-07-13T01:50:48.285Z,99.10
2018-07-13T01:53:16.706Z,99.10
2018-07-13T01:55:45.216Z,99.60
2018-07-13T01:58:13.569Z,99.20
2018-07-13T02:00:41.995Z,99.20
2018-07-13T02:03:10.395Z,99.10
2018-07-13T02:05:38.957Z,99.10
2018-07-13T02:08:07.372Z,99.10
2018-07-13T02:10:35.785Z,99.10
2018-07-13T02:13:04.323Z,99.10
2018-07-13T02:15:32.729Z,99.10
2018-07-13T02:18:01.132Z,99.40
2018-07-13T02:20:29.548Z,99.50
2018-07-13T02:22:57.992Z,99.70
2018-07-13T02:25:26.448Z,99.90
2018-07-13T02:27:54.973Z,99.90
2018-07-13T02:30:23.393Z,99.90
2018-07-13T02:32:51.833Z,99.90
2018-07-13T02:35:20.252Z,99.90
2018-07-13T02:37:48.683Z,99.90
2018-07-13T02:40:17.114Z,99.90
2018-07-13T02:42:45.521Z,99.90
2018-07-13T02:45:14.148Z,99.90
2018-07-13T02:47:42.576Z,99.90
2018-07-13T02:50:11.003Z,99.90
2018-07-13T02:52:39.552Z,99.90
2018-07-13T02:55:08.117Z,99.90
2018-07-13T02:57:36.547Z,99.90
2018-07-13T03:00:05.225Z,99.90
2018-07-13T03:02:33.655Z,99.90
2018-07-13T03:05:02.103Z,99.90
2018-07-13T03:07:30.567Z,99.90
2018-07-13T03:09:58.995Z,99.90
2018-07-13T03:12:27.467Z,99.90
2018-07-13T03:14:55.866Z,99.90
2018-07-13T03:17:24.425Z,99.90
2018-07-13T03:19:52.831Z,99.90
2018-07-13T03:22:21.269Z,99.90
2018-07-13T03:24:49.675Z,99.90
2018-07-13T03:27:18.140Z,99.90
2018-07-13T03:29:46.553Z,99.90
2018-07-13T03:32:14.975Z,99.90
2018-07-13T03:34:43.457Z,99.90
2018-07-13T03:37:11.889Z,99.90
2018-07-13T03:39:40.319Z,99.90
2018-07-13T03:42:08.729Z,99.90
2018-07-13T03:44:37.217Z,99.90
2018-07-13T03:47:05.809Z,99.90
2018-07-13T03:49:34.286Z,99.90
2018-07-13T03:52:02.841Z,99.90
2018-07-13T03:54:31.274Z,99.90
2018-07-13T03:56:59.699Z,99.90
2018-07-13T03:59:28.127Z,99.90
2018-07-13T04:01:56.531Z,99.90
2018-07-13T04:04:24.997Z,99.90
2018-07-13T04:06:54.193Z,99.90
2018-07-13T04:09:22.591Z,99.90
2018-07-13T04:11:51.038Z,99.90
2018-07-13T04:14:19.485Z,99.80
2018-07-13T04:16:47.895Z,99.90
2018-07-13T04:19:16.381Z,99.90
2018-07-13T04:21:44.819Z,99.50
2018-07-13T04:24:13.321Z,99.40
2018-07-13T04:26:43.837Z,99.20
2018-07-13T04:29:12.407Z,99.10
2018-07-13T04:31:40.967Z,99.00
2018-07-13T04:34:09.510Z,98.90
2018-07-13T04:36:37.967Z,98.80
2018-07-13T04:39:09.129Z,98.70
2018-07-13T04:41:37.671Z,98.60
2018-07-13T04:44:06.597Z,98.50
2018-07-13T04:46:35.125Z,98.80
2018-07-13T04:49:03.775Z,98.40
2018-07-13T04:51:32.231Z,98.30
2018-07-13T04:54:00.766Z,98.20
2018-07-13T04:56:29.608Z,98.10
2018-07-13T04:58:58.134Z,98.00
2018-07-13T05:01:26.937Z,97.60
2018-07-13T05:03:55.632Z,97.40
2018-07-13T05:06:24.112Z,97.10
2018-07-13T05:08:52.605Z,97.10
2018-07-13T05:11:21.072Z,97.10
2018-07-13T05:13:49.564Z,96.40
2018-07-13T05:16:18.038Z,96.10
2018-07-13T05:18:46.502Z,95.80
2018-07-13T05:21:15.143Z,95.40
2018-07-13T05:23:43.593Z,95.20
2018-07-13T05:26:12.179Z,95.00
2018-07-13T05:28:40.811Z,94.90
2018-07-13T05:31:09.634Z,94.90
2018-07-13T05:33:38.255Z,94.60
2018-07-13T05:36:06.954Z,94.40
2018-07-13T05:38:35.508Z,94.00
2018-07-13T05:41:04.224Z,93.70
2018-07-13T05:43:32.728Z,93.50
2018-07-13T05:46:01.260Z,93.50
2018-07-13T05:48:31.424Z,92.80
2018-07-13T05:51:00.272Z,92.40
2018-07-13T05:53:29.238Z,92.10
2018-07-13T05:55:57.862Z,92.00
2018-07-13T05:58:27.142Z,91.70
2018-07-13T06:00:56.936Z,91.90
2018-07-13T06:03:25.505Z,92.50
2018-07-13T06:05:53.959Z,92.20
2018-07-13T06:08:22.455Z,91.80
2018-07-13T06:10:51.129Z,91.80
2018-07-13T06:13:19.643Z,91.60
2018-07-13T06:15:48.344Z,91.10
2018-07-13T06:18:16.908Z,90.70
2018-07-13T06:20:45.376Z,90.40
2018-07-13T06:23:13.828Z,90.20
2018-07-13T06:25:42.312Z,89.50
2018-07-13T06:28:10.756Z,88.60
2018-07-13T06:30:39.972Z,87.50
2018-07-13T06:33:08.640Z,86.90
2018-07-13T06:35:37.100Z,86.70
2018-07-13T06:38:05.982Z,86.70
2018-07-13T06:40:34.555Z,86.90
2018-07-13T06:43:03.092Z,86.20
2018-07-13T06:45:35.835Z,84.60
2018-07-13T06:48:04.593Z,83.30
2018-07-13T06:50:33.232Z,83.10
2018-07-13T06:53:02.112Z,82.80
2018-07-13T06:55:30.562Z,81.90
2018-07-13T06:58:10.364Z,82.40
2018-07-13T07:01:09.603Z,82.30
2018-07-13T07:04:50.556Z,81.70
2018-07-13T07:07:21.696Z,80.90
2018-07-13T07:09:51.619Z,79.70
2018-07-13T07:13:28.930Z,79.60
2018-07-13T07:15:57.587Z,77.80
2018-07-13T07:18:26.052Z,77.20
2018-07-13T07:20:55.479Z,76.70
2018-07-13T07:23:24.040Z,76.20
2018-07-13T07:25:53.043Z,75.70
2018-07-13T07:28:21.505Z,76.10
2018-07-13T07:30:50.032Z,75.70
2018-07-13T07:33:18.435Z,75.70
2018-07-13T07:35:46.899Z,76.40
2018-07-13T07:38:16.795Z,75.50
2018-07-13T07:40:45.641Z,76.20
2018-07-13T07:43:14.096Z,76.90
2018-07-13T07:45:42.601Z,76.40
2018-07-13T07:48:11.297Z,77.30
2018-07-13T07:50:39.767Z,76.30
2018-07-13T07:53:08.249Z,75.60
2018-07-13T07:55:36.703Z,73.70
2018-07-13T07:58:05.627Z,72.80
2018-07-13T08:00:34.097Z,73.10
2018-07-13T08:03:02.549Z,73.00
2018-07-13T08:05:30.963Z,71.70
2018-07-13T08:07:59.355Z,69.30
2018-07-13T08:10:28.023Z,69.40
2018-07-13T08:12:56.399Z,69.60
2018-07-13T08:15:24.847Z,70.10
2018-07-13T08:17:53.241Z,70.00
2018-07-13T08:20:25.457Z,68.90
2018-07-13T08:22:58.989Z,69.10
2018-07-13T08:25:27.818Z,66.40
2018-07-13T08:28:02.101Z,65.60
2018-07-13T08:30:33.280Z,67.00
2018-07-13T08:33:01.750Z,65.70
2018-07-13T08:35:30.126Z,65.40
2018-07-13T08:37:58.544Z,65.00
2018-07-13T08:40:27.038Z,64.50
2018-07-13T08:42:55.479Z,65.70
2018-07-13T08:45:24.128Z,64.20
2018-07-13T08:47:52.568Z,64.40
2018-07-13T08:50:21.061Z,62.80
2018-07-13T08:52:49.572Z,62.80
2018-07-13T08:55:18.019Z,60.40
2018-07-13T08:57:48.003Z,59.70
2018-07-13T09:02:44.730Z,60.70
2018-07-13T09:05:13.480Z,62.20
2018-07-13T09:07:42.844Z,63.30
2018-07-13T09:10:12.317Z,62.80
2018-07-13T09:12:41.393Z,61.20
2018-07-13T09:15:11.328Z,61.90
2018-07-13T09:17:39.782Z,62.90
2018-07-13T09:20:09.716Z,64.60
2018-07-13T09:22:38.223Z,62.70
2018-07-13T09:25:07.372Z,62.00
2018-07-13T09:27:35.798Z,62.40
2018-07-13T09:30:04.542Z,60.30
2018-07-13T09:32:32.967Z,59.60
2018-07-13T09:35:01.396Z,58.70
2018-07-13T09:37:29.879Z,59.80
2018-07-13T09:39:58.326Z,59.90
2018-07-13T09:42:26.774Z,57.60
2018-07-13T09:44:55.203Z,57.40
2018-07-13T09:47:23.823Z,57.90
2018-07-13T09:49:52.268Z,57.90
2018-07-13T09:52:21.278Z,57.40
2018-07-13T09:54:49.717Z,56.20
2018-07-13T09:57:18.187Z,57.80
2018-07-13T09:59:47.085Z,58.90
2018-07-13T10:02:15.588Z,59.10
2018-07-13T10:04:44.076Z,58.30
2018-07-13T10:07:12.716Z,57.20
2018-07-13T10:09:41.155Z,55.90
2018-07-13T10:12:09.612Z,56.60
2018-07-13T10:14:38.121Z,55.50
2018-07-13T10:17:06.643Z,53.90
2018-07-13T10:19:35.112Z,53.00
2018-07-13T10:22:03.584Z,54.30
2018-07-13T10:24:33.099Z,54.40
2018-07-13T10:27:01.609Z,55.20
2018-07-13T10:29:33.017Z,55.80
2018-07-13T10:32:02.272Z,56.50
2018-07-13T10:34:30.787Z,56.60
2018-07-13T10:37:02.835Z,55.80
2018-07-13T10:39:31.828Z,55.50
2018-07-13T10:42:00.494Z,55.10
2018-07-13T10:44:28.958Z,54.70
2018-07-13T10:46:57.403Z,55.20
2018-07-13T10:49:25.908Z,56.20
2018-07-13T10:51:54.348Z,55.50
2018-07-13T10:54:22.960Z,55.80
2018-07-13T10:56:51.624Z,54.10
2018-07-13T10:59:19.988Z,52.40
2018-07-13T11:01:48.448Z,52.40
2018-07-13T11:04:16.917Z,51.50
2018-07-13T11:06:45.857Z,50.60
2018-07-13T11:09:14.280Z,49.70
2018-07-13T11:11:42.681Z,50.30
2018-07-13T11:14:11.466Z,50.00
2018-07-13T11:16:40.309Z,49.10
2018-07-13T11:19:08.818Z,48.30
2018-07-13T11:21:37.299Z,46.50
2018-07-13T11:24:05.763Z,45.20
2018-07-13T11:26:34.215Z,44.80
2018-07-13T11:29:02.636Z,44.60
2018-07-13T11:31:31.171Z,45.70
2018-07-13T11:33:59.576Z,47.10
2018-07-13T11:36:28.068Z,46.60
2018-07-13T11:38:56.928Z,46.70
2018-07-13T11:41:25.340Z,45.30
2018-07-13T11:43:53.769Z,44.70
2018-07-13T11:46:22.180Z,46.60
2018-07-13T11:48:50.642Z,47.10
2018-07-13T11:51:19.214Z,45.60
2018-07-13T11:53:47.660Z,46.30
2018-07-13T11:56:16.064Z,46.30
2018-07-13T11:58:44.544Z,46.70
2018-07-13T12:01:13.864Z,47.10
2018-07-13T12:03:42.384Z,47.40
2018-07-13T12:06:10.800Z,47.10
2018-07-13T12:08:39.240Z,48.10
2018-07-13T12:11:07.722Z,48.10
2018-07-13T12:13:36.140Z,47.50
2018-07-13T12:16:04.867Z,47.50
2018-07-13T12:18:33.400Z,48.50
2018-07-13T12:21:02.013Z,47.40
2018-07-13T12:23:30.432Z,46.40
2018-07-13T12:26:00.067Z,46.40
2018-07-13T12:28:28.529Z,45.90
2018-07-13T12:30:56.930Z,45.80
2018-07-13T12:33:25.323Z,46.00
2018-07-13T12:35:53.714Z,46.90
2018-07-13T12:38:22.249Z,45.80
2018-07-13T12:40:50.715Z,47.70
2018-07-13T12:43:19.287Z,47.50
2018-07-13T12:45:47.787Z,47.80
2018-07-13T12:48:16.363Z,47.60
2018-07-13T12:50:45.919Z,47.20
2018-07-13T12:53:15.382Z,47.20
2018-07-13T12:55:44.545Z,48.20
2018-07-13T12:58:12.976Z,47.80
2018-07-13T13:00:42.185Z,47.20
2018-07-13T13:03:10.635Z,47.30
2018-07-13T13:05:39.167Z,47.90
2018-07-13T13:08:07.544Z,48.70
2018-07-13T13:10:36.023Z,50.20
2018-07-13T13:13:04.458Z,49.00
2018-07-13T13:15:32.916Z,47.50
2018-07-13T13:18:01.312Z,47.30
2018-07-13T13:20:29.746Z,46.60
2018-07-13T13:25:26.424Z,45.00
2018-07-13T13:27:54.858Z,46.50
2018-07-13T13:30:23.380Z,46.90
2018-07-13T13:32:51.953Z,46.60
2018-07-13T13:35:20.349Z,45.10
2018-07-13T13:37:48.786Z,44.80
2018-07-13T13:40:17.206Z,45.60
2018-07-13T13:42:45.821Z,44.90
2018-07-13T13:45:14.264Z,43.90
2018-07-13T13:47:42.710Z,44.20
2018-07-13T13:50:11.165Z,44.80
2018-07-13T13:52:39.560Z,45.60
2018-07-13T13:55:08.034Z,45.40
2018-07-13T13:57:36.437Z,45.10
2018-07-13T14:00:04.920Z,45.70
2018-07-13T14:02:33.441Z,45.10
2018-07-13T14:05:01.921Z,44.50
2018-07-13T14:07:30.573Z,44.30
2018-07-13T14:09:59.052Z,45.10
2018-07-13T14:12:27.560Z,45.10
2018-07-13T14:14:56.061Z,44.60
2018-07-13T14:17:25.272Z,44.70
2018-07-13T14:19:54.463Z,44.90
2018-07-13T14:22:22.876Z,44.50
2018-07-13T14:24:51.348Z,44.70
2018-07-13T14:27:19.876Z,45.20
2018-07-13T14:29:48.300Z,45.10
2018-07-13T14:32:16.736Z,45.10
2018-07-13T14:34:45.172Z,45.10
2018-07-13T14:37:13.601Z,45.00
2018-07-13T14:39:42.032Z,44.90
2018-07-13T14:42:10.455Z,45.50
2018-07-13T14:44:38.883Z,46.50
2018-07-13T14:47:07.625Z,46.30
2018-07-13T14:49:35.900Z,46.30
2018-07-13T14:52:04.390Z,46.80
2018-07-13T14:54:32.832Z,46.20
2018-07-13T14:57:01.264Z,44.90
2018-07-13T14:59:29.696Z,44.80
2018-07-13T15:01:58.140Z,44.90
2018-07-13T15:04:26.586Z,45.40
2018-07-13T15:06:55.068Z,46.30
2018-07-13T15:09:23.413Z,46.80
2018-07-13T15:11:51.855Z,45.40
2018-07-13T15:14:20.327Z,45.70
2018-07-13T15:16:48.889Z,45.90
2018-07-13T15:19:17.381Z,46.50
2018-07-13T15:21:45.872Z,45.50
2018-07-13T15:24:15.293Z,45.90
2018-07-13T15:26:43.759Z,46.50
2018-07-13T15:29:12.224Z,45.80
2018-07-13T15:31:40.844Z,46.30
2018-07-13T15:34:09.351Z,46.80
2018-07-13T15:36:37.791Z,46.60
2018-07-13T15:39:06.763Z,47.20
2018-07-13T15:41:35.339Z,47.30
2018-07-13T15:44:03.866Z,47.60
2018-07-13T15:46:32.317Z,47.60
2018-07-13T15:49:00.869Z,48.50
2018-07-13T15:51:29.465Z,48.60
2018-07-13T15:53:58.219Z,47.20
2018-07-13T15:56:26.701Z,47.50
2018-07-13T15:58:55.170Z,48.60
2018-07-13T16:01:23.505Z,48.40
2018-07-13T16:03:52.033Z,48.30
2018-07-13T16:06:20.860Z,48.40
2018-07-13T16:08:49.401Z,48.10
2018-07-13T16:11:17.839Z,48.70
2018-07-13T16:13:46.385Z,48.70
2018-07-13T16:16:14.801Z,49.40
2018-07-13T16:18:43.221Z,48.60
2018-07-13T16:21:11.679Z,48.60
2018-07-13T16:23:40.302Z,48.70
2018-07-13T16:26:08.716Z,48.70
2018-07-13T16:28:37.637Z,49.00
2018-07-13T16:31:06.355Z,48.60
2018-07-13T16:33:35.039Z,49.00
2018-07-13T16:36:03.454Z,48.40
2018-07-13T16:38:31.855Z,48.90
2018-07-13T16:41:00.281Z,48.10
2018-07-13T16:43:28.704Z,48.30
2018-07-13T16:45:57.104Z,47.90
2018-07-13T16:48:25.505Z,48.40
2018-07-13T16:50:54.111Z,49.20
2018-07-13T16:53:22.580Z,48.60
2018-07-13T16:55:51.100Z,49.10
2018-07-13T16:58:19.897Z,49.40
2018-07-13T17:00:48.343Z,49.80
2018-07-13T17:03:16.906Z,48.90
2018-07-13T17:05:45.214Z,48.70
2018-07-13T17:08:13.645Z,48.50
2018-07-13T17:10:42.081Z,48.60
2018-07-13T17:13:10.481Z,49.40
2018-07-13T17:15:38.981Z,48.70
2018-07-13T17:18:07.453Z,48.50
2018-07-13T17:20:36.103Z,48.90
2018-07-13T17:23:04.423Z,49.30
2018-07-13T17:25:32.897Z,49.40
2018-07-13T17:28:01.457Z,49.20
2018-07-13T17:30:29.975Z,49.70
2018-07-13T17:32:58.358Z,48.90
2018-07-13T17:35:26.775Z,48.80
2018-07-13T17:37:55.181Z,49.30
2018-07-13T17:40:23.588Z,50.30
2018-07-13T17:42:52.418Z,50.30
2018-07-13T17:45:20.611Z,49.80
2018-07-13T17:47:49.045Z,50.40
2018-07-13T17:50:17.441Z,50.20
2018-07-13T17:52:45.987Z,50.50
2018-07-13T17:55:14.417Z,50.40
2018-07-13T17:57:42.815Z,50.30
2018-07-13T18:00:11.279Z,50.90
2018-07-13T18:02:39.785Z,50.60
2018-07-13T18:05:08.233Z,50.20
2018-07-13T18:07:36.673Z,50.00
2018-07-13T18:10:05.278Z,50.20
2018-07-13T18:12:33.770Z,50.60
2018-07-13T18:15:02.241Z,50.80
2018-07-13T18:17:30.707Z,50.90
2018-07-13T18:19:59.091Z,51.20
2018-07-13T18:22:27.559Z,51.20
2018-07-13T18:24:56.165Z,51.80
2018-07-13T18:27:24.600Z,51.60
2018-07-13T18:29:53.005Z,51.90
2018-07-13T18:32:21.597Z,52.00
2018-07-13T18:34:50.041Z,51.70
2018-07-13T18:37:18.424Z,51.80
2018-07-13T18:39:46.956Z,52.00
2018-07-13T18:42:15.394Z,52.30
2018-07-13T18:44:43.823Z,52.70
2018-07-13T18:47:12.477Z,52.80
2018-07-13T18:49:40.977Z,53.00
2018-07-13T18:52:09.344Z,52.60
2018-07-13T18:54:37.752Z,52.90
2018-07-13T18:57:06.178Z,53.00
2018-07-13T18:59:34.744Z,53.30
2018-07-13T19:02:03.345Z,53.30
2018-07-13T19:04:31.745Z,54.20
2018-07-13T19:07:00.168Z,54.00
2018-07-13T19:09:29.201Z,54.10
2018-07-13T19:11:57.773Z,54.20
2018-07-13T19:14:26.196Z,54.30
2018-07-13T19:16:54.651Z,54.60
2018-07-13T19:19:23.117Z,54.60
2018-07-13T19:21:51.611Z,54.80
2018-07-13T19:24:19.995Z,55.10
2018-07-13T19:26:48.431Z,55.70
2018-07-13T19:29:16.913Z,56.00
2018-07-13T19:31:45.315Z,55.80
2018-07-13T19:34:14.717Z,55.80
2018-07-13T19:36:43.169Z,56.20
2018-07-13T19:39:11.598Z,56.70
2018-07-13T19:41:40.055Z,57.10
2018-07-13T19:44:08.509Z,57.40
2018-07-13T19:46:37.208Z,57.70
2018-07-13T19:49:18.211Z,58.10
2018-07-13T19:51:46.962Z,58.50
2018-07-13T19:54:15.774Z,59.40
2018-07-13T19:56:44.244Z,59.60
2018-07-13T19:59:12.641Z,59.50
2018-07-13T20:01:41.094Z,59.80
2018-07-13T20:04:09.536Z,59.80
2018-07-13T20:06:38.068Z,59.90
2018-07-13T20:09:07.268Z,60.10
2018-07-13T20:11:35.722Z,60.40
2018-07-13T20:14:04.206Z,60.50
2018-07-13T20:16:32.639Z,61.20
2018-07-13T20:19:01.041Z,62.60
2018-07-13T20:21:29.523Z,62.20
2018-07-13T20:23:57.949Z,63.10
2018-07-13T20:26:26.490Z,63.60
2018-07-13T20:28:55.001Z,64.20
2018-07-13T20:31:23.405Z,65.10
2018-07-13T20:33:51.793Z,65.80
2018-07-13T20:36:20.232Z,67.00
2018-07-13T20:38:48.675Z,68.60
2018-07-13T20:41:17.082Z,69.20
2018-07-13T20:43:45.620Z,68.70
2018-07-13T20:46:14.291Z,69.50
2018-07-13T20:48:42.726Z,70.60
2018-07-13T20:51:11.223Z,71.60
2018-07-13T20:53:39.707Z,72.70
2018-07-13T20:56:08.336Z,72.10
2018-07-13T20:58:37.055Z,73.90
2018-07-13T21:01:05.452Z,74.50
2018-07-13T21:03:33.941Z,75.30
2018-07-13T21:06:02.560Z,75.50
2018-07-13T21:08:30.975Z,75.70
2018-07-13T21:10:59.620Z,76.40
2018-07-13T21:13:28.034Z,77.30
2018-07-13T21:15:56.468Z,77.90
2018-07-13T21:18:25.012Z,78.40
2018-07-13T21:20:53.454Z,78.50
2018-07-13T21:23:21.852Z,78.20
2018-07-13T21:25:50.262Z,77.60
2018-07-13T21:28:18.710Z,78.20
2018-07-13T21:30:47.242Z,79.20
2018-07-13T21:33:15.632Z,79.90
2018-07-13T21:35:44.110Z,80.70
2018-07-13T21:38:12.738Z,80.00
2018-07-13T21:40:41.190Z,80.90
2018-07-13T21:43:09.768Z,80.80
2018-07-13T21:45:38.218Z,80.10
2018-07-13T21:48:06.888Z,79.40
2018-07-13T21:50:35.300Z,79.60
2018-07-13T21:53:03.781Z,80.50
2018-07-13T21:55:32.359Z,80.30
2018-07-13T21:58:01.070Z,80.90
2018-07-13T22:00:29.948Z,80.20
2018-07-13T22:02:58.424Z,80.70
2018-07-13T22:05:26.976Z,81.50
2018-07-13T22:07:55.480Z,82.50
2018-07-13T22:10:23.904Z,83.10
2018-07-13T22:12:52.860Z,84.10
2018-07-13T22:15:21.350Z,85.00
2018-07-13T22:17:49.822Z,85.50
2018-07-13T22:20:18.746Z,85.90
2018-07-13T22:22:47.432Z,85.70
2018-07-13T22:25:16.476Z,83.30
2018-07-13T22:27:44.936Z,83.60
2018-07-13T22:30:13.488Z,83.30
2018-07-13T22:32:42.958Z,83.20
2018-07-13T22:35:11.352Z,84.30
2018-07-13T22:37:39.820Z,83.30
2018-07-13T22:40:08.584Z,84.50
2018-07-13T22:42:37.161Z,84.00
2018-07-13T22:45:06.106Z,84.10
2018-07-13T22:47:34.588Z,85.90
2018-07-13T22:50:03.218Z,86.50
2018-07-13T22:52:31.647Z,86.80
2018-07-13T22:55:00.339Z,86.50
2018-07-13T22:57:28.738Z,86.40
2018-07-13T22:59:57.198Z,87.90
2018-07-13T23:02:25.638Z,88.70
2018-07-13T23:04:54.139Z,89.60
2018-07-13T23:07:23.524Z,89.50
2018-07-13T23:09:54.524Z,89.10
2018-07-13T23:12:23.364Z,90.10
2018-07-13T23:14:51.794Z,90.70
2018-07-13T23:17:20.215Z,91.50
2018-07-13T23:19:48.678Z,92.00
2018-07-13T23:22:17.150Z,91.70
2018-07-13T23:24:45.588Z,91.90
2018-07-13T23:27:14.982Z,91.90
2018-07-13T23:29:43.408Z,91.70
2018-07-13T23:32:11.887Z,91.80
2018-07-13T23:34:40.400Z,92.20
2018-07-13T23:37:08.816Z,92.40
2018-07-13T23:39:37.264Z,92.40
2018-07-13T23:42:05.711Z,92.40
2018-07-13T23:44:34.128Z,92.50
2018-07-13T23:47:02.761Z,92.50
2018-07-13T23:49:31.199Z,92.50
2018-07-13T23:51:59.631Z,92.30
2018-07-13T23:54:28.092Z,92.40
2018-07-13T23:56:56.584Z,92.20
2018-07-13T23:59:25.051Z,92.40
